createdAt,value
2019-04-29T00:00:54.011Z,64.80
2019-04-29T00:06:14.811Z,64.70
2019-04-29T00:17:50.158Z,64.80
2019-04-29T00:22:51.571Z,64.80
2019-04-29T00:27:52.866Z,64.80
2019-04-29T00:32:58.222Z,64.70
2019-04-29T00:38:01.658Z,64.70
2019-04-29T00:43:14.113Z,64.80
2019-04-29T00:48:18.663Z,64.80
2019-04-29T00:53:41.085Z,64.80
2019-04-29T00:58:44.562Z,64.80
2019-04-29T01:03:48.372Z,64.90
2019-04-29T01:08:53.030Z,64.80
2019-04-29T01:13:54.356Z,64.80
2019-04-29T01:19:03.879Z,64.80
2019-04-29T01:24:08.512Z,64.80
2019-04-29T01:29:15.589Z,64.90
2019-04-29T01:34:24.189Z,64.90
2019-04-29T01:39:28.737Z,64.90
2019-04-29T01:44:36.478Z,65.00
2019-04-29T01:49:41.074Z,65.10
2019-04-29T01:55:09.591Z,65.10
2019-04-29T02:00:12.450Z,65.10
2019-04-29T02:05:17.300Z,65.00
2019-04-29T02:10:48.839Z,65.10
2019-04-29T02:15:51.727Z,65.80
2019-04-29T02:20:53.097Z,65.10
2019-04-29T02:26:00.638Z,65.30
2019-04-29T02:31:23.803Z,65.40
2019-04-29T02:36:29.367Z,65.40
2019-04-29T02:41:33.401Z,65.50
2019-04-29T02:46:37.860Z,65.50
2019-04-29T02:51:54.393Z,65.60
2019-04-29T02:57:09.777Z,65.70
2019-04-29T03:02:13.041Z,65.70
2019-04-29T03:07:14.442Z,65.80
2019-04-29T03:12:15.858Z,65.90
2019-04-29T03:17:45.316Z,65.80
2019-04-29T03:22:53.664Z,66.00
2019-04-29T03:28:14.254Z,65.90
2019-04-29T03:33:17.792Z,66.00
2019-04-29T03:38:25.246Z,66.20
2019-04-29T03:43:29.991Z,66.40
2019-04-29T03:48:48.538Z,66.40
2019-04-29T03:53:53.173Z,66.50
2019-04-29T03:58:54.502Z,66.40
2019-04-29T04:04:19.577Z,66.30
2019-04-29T04:09:26.105Z,66.30
2019-04-29T04:14:36.442Z,66.30
2019-04-29T04:19:37.974Z,66.20
2019-04-29T04:24:43.779Z,66.20
2019-04-29T04:29:45.120Z,66.10
2019-04-29T04:35:08.483Z,66.10
2019-04-29T04:40:13.301Z,66.10
2019-04-29T04:45:18.018Z,66.20
2019-04-29T04:50:37.518Z,66.20
2019-04-29T04:55:44.047Z,66.20
2019-04-29T05:00:53.450Z,66.10
2019-04-29T05:06:21.801Z,66.00
2019-04-29T05:11:53.437Z,65.70
2019-04-29T05:16:58.140Z,65.60
2019-04-29T05:21:59.489Z,65.50
2019-04-29T05:27:09.982Z,65.40
2019-04-29T05:32:12.486Z,65.40
2019-04-29T05:37:36.189Z,65.40
2019-04-29T05:42:43.894Z,65.30
2019-04-29T05:47:47.250Z,65.20
2019-04-29T05:53:11.427Z,65.00
2019-04-29T05:58:50.192Z,64.80
2019-04-29T06:04:06.842Z,64.40
2019-04-29T06:09:22.432Z,63.90
2019-04-29T06:14:33.102Z,63.60
2019-04-29T06:19:39.440Z,63.00
2019-04-29T06:25:04.631Z,62.50
2019-04-29T06:30:06.631Z,61.60
2019-04-29T06:35:57.708Z,59.70
2019-04-29T06:41:05.582Z,58.20
2019-04-29T06:46:11.304Z,57.60
2019-04-29T06:51:15.829Z,57.00
2019-04-29T06:56:29.279Z,56.90
2019-04-29T07:01:43.034Z,57.00
2019-04-29T07:06:57.316Z,57.30
2019-04-29T07:12:01.595Z,57.90
2019-04-29T07:17:07.139Z,58.20
2019-04-29T07:22:14.854Z,58.70
2019-04-29T07:27:16.278Z,59.10
2019-04-29T07:32:42.254Z,59.60
2019-04-29T07:37:55.803Z,60.10
2019-04-29T07:43:02.833Z,61.30
2019-04-29T07:48:41.979Z,62.10
2019-04-29T07:54:05.476Z,62.30
2019-04-29T07:59:11.202Z,62.40
2019-04-29T08:04:15.416Z,62.80
2019-04-29T08:09:20.393Z,62.60
2019-04-29T08:14:44.988Z,62.10
2019-04-29T08:19:49.522Z,61.90
2019-04-29T08:24:54.147Z,61.80
2019-04-29T08:30:11.211Z,61.60
2019-04-29T08:35:16.455Z,61.70
2019-04-29T08:40:27.156Z,60.60
2019-04-29T08:45:34.683Z,60.30
2019-04-29T08:50:38.077Z,60.50
2019-04-29T08:55:54.934Z,60.90
2019-04-29T09:01:02.207Z,60.50
2019-04-29T09:06:10.026Z,59.90
2019-04-29T09:11:54.909Z,59.30
2019-04-29T09:17:06.099Z,59.40
2019-04-29T09:22:13.194Z,59.00
2019-04-29T09:27:20.643Z,58.80
2019-04-29T09:32:21.973Z,59.10
2019-04-29T09:37:26.510Z,58.10
2019-04-29T09:42:57.156Z,58.00
2019-04-29T09:48:06.777Z,59.30
2019-04-29T09:53:11.437Z,59.30
2019-04-29T09:58:21.328Z,58.40
2019-04-29T10:03:54.748Z,57.70
2019-04-29T10:09:39.939Z,57.30
2019-04-29T10:14:42.577Z,57.70
2019-04-29T10:19:45.843Z,57.00
2019-04-29T10:24:50.337Z,56.30
2019-04-29T10:29:55.303Z,55.60
2019-04-29T10:35:08.824Z,56.20
2019-04-29T10:40:32.644Z,57.30
2019-04-29T10:45:37.000Z,56.10
2019-04-29T10:50:47.160Z,55.30
2019-04-29T10:55:47.264Z,54.30
2019-04-29T11:01:24.436Z,53.90
2019-04-29T11:06:25.921Z,53.70
2019-04-29T11:11:34.951Z,56.00
2019-04-29T11:16:46.622Z,57.00
2019-04-29T11:21:46.532Z,57.10
2019-04-29T11:26:55.547Z,57.80
2019-04-29T11:31:58.898Z,57.80
2019-04-29T11:37:08.261Z,56.60
2019-04-29T11:42:09.901Z,55.10
2019-04-29T11:47:11.709Z,54.80
2019-04-29T11:52:13.378Z,55.00
2019-04-29T11:57:41.175Z,55.20
2019-04-29T12:03:01.890Z,53.30
2019-04-29T12:08:16.068Z,52.00
2019-04-29T12:13:30.363Z,51.50
2019-04-29T12:18:38.070Z,51.60
2019-04-29T12:23:40.208Z,54.00
2019-04-29T12:28:44.862Z,54.60
2019-04-29T12:33:51.215Z,54.80
2019-04-29T12:39:13.058Z,52.60
2019-04-29T12:44:17.570Z,51.30
2019-04-29T12:49:20.313Z,50.70
2019-04-29T12:54:27.931Z,51.00
2019-04-29T12:59:30.661Z,51.20
2019-04-29T13:04:50.163Z,51.60
2019-04-29T13:10:02.136Z,50.00
2019-04-29T13:15:13.846Z,50.40
2019-04-29T13:20:15.498Z,50.50
2019-04-29T13:25:20.875Z,51.40
2019-04-29T13:30:25.624Z,51.90
2019-04-29T13:35:28.252Z,51.60
2019-04-29T13:40:37.244Z,50.80
2019-04-29T13:45:46.031Z,49.80
2019-04-29T13:50:51.450Z,49.50
2019-04-29T13:56:10.497Z,50.90
2019-04-29T14:01:22.079Z,51.00
2019-04-29T14:06:20.164Z,49.70
2019-04-29T14:11:27.663Z,48.00
2019-04-29T14:16:48.753Z,46.60
2019-04-29T14:21:58.264Z,47.70
2019-04-29T14:27:25.531Z,50.20
2019-04-29T14:32:36.066Z,51.10
2019-04-29T14:37:34.366Z,50.80
2019-04-29T14:42:40.760Z,48.50
2019-04-29T14:48:04.830Z,48.70
2019-04-29T14:53:06.433Z,49.20
2019-04-29T14:58:09.993Z,49.80
2019-04-29T15:03:31.975Z,50.10
2019-04-29T15:08:38.165Z,48.40
2019-04-29T15:13:43.201Z,47.10
2019-04-29T15:18:50.064Z,46.50
2019-04-29T15:23:58.371Z,45.80
2019-04-29T15:29:03.355Z,47.00
2019-04-29T15:34:16.315Z,48.30
2019-04-29T15:39:19.940Z,48.80
2019-04-29T15:44:22.963Z,48.90
2019-04-29T15:49:26.534Z,49.10
2019-04-29T15:54:45.982Z,48.70
2019-04-29T15:59:58.894Z,48.70
2019-04-29T16:04:58.930Z,48.70
2019-04-29T16:10:20.474Z,49.10
2019-04-29T16:15:24.072Z,48.90
2019-04-29T16:20:28.692Z,48.40
2019-04-29T16:25:52.427Z,48.30
2019-04-29T16:30:59.173Z,48.10
2019-04-29T16:36:05.269Z,48.20
2019-04-29T16:41:26.953Z,48.20
2019-04-29T16:46:37.486Z,47.80
2019-04-29T16:51:36.977Z,47.70
2019-04-29T16:56:44.367Z,47.90
2019-04-29T17:01:46.290Z,48.20
2019-04-29T17:07:13.986Z,48.60
2019-04-29T17:12:15.435Z,48.60
2019-04-29T17:17:28.913Z,48.50
2019-04-29T17:22:28.719Z,49.20
2019-04-29T17:27:41.959Z,48.80
2019-04-29T17:32:52.755Z,49.30
2019-04-29T17:37:55.933Z,50.10
2019-04-29T17:43:06.038Z,50.80
2019-04-29T17:48:22.557Z,51.30
2019-04-29T17:53:32.206Z,51.60
2019-04-29T17:58:37.683Z,51.80
2019-04-29T18:03:59.546Z,51.60
2019-04-29T18:09:27.033Z,51.50
2019-04-29T18:14:37.806Z,51.80
2019-04-29T18:19:55.098Z,52.00
2019-04-29T18:25:02.118Z,52.30
2019-04-29T18:30:07.944Z,52.30
2019-04-29T18:35:22.787Z,52.60
2019-04-29T18:40:30.029Z,52.90
2019-04-29T18:45:39.513Z,53.00
2019-04-29T18:50:48.362Z,53.20
2019-04-29T18:56:05.234Z,53.30
2019-04-29T19:01:12.873Z,53.50
2019-04-29T19:06:15.106Z,53.70
2019-04-29T19:11:31.915Z,53.70
2019-04-29T19:16:27.982Z,53.90
2019-04-29T19:21:31.619Z,54.10
2019-04-29T19:26:35.316Z,54.20
2019-04-29T19:31:47.526Z,54.20
2019-04-29T19:36:45.011Z,54.40
2019-04-29T19:41:51.494Z,54.50
2019-04-29T19:47:00.460Z,54.50
2019-04-29T19:52:09.909Z,54.50
2019-04-29T19:57:20.616Z,54.60
2019-04-29T20:02:26.159Z,54.60
2019-04-29T20:07:28.672Z,56.30
2019-04-29T20:12:31.102Z,55.90
2019-04-29T20:17:45.773Z,55.70
2019-04-29T20:22:51.263Z,55.60
2019-04-29T20:28:04.784Z,55.50
2019-04-29T20:33:01.154Z,55.60
2019-04-29T20:38:05.691Z,55.50
2019-04-29T20:43:08.266Z,55.70
2019-04-29T20:48:11.174Z,55.60
2019-04-29T20:53:18.504Z,55.50
2019-04-29T20:58:23.442Z,55.60
2019-04-29T21:03:32.100Z,55.70
2019-04-29T21:08:51.127Z,55.90
2019-04-29T21:13:56.347Z,56.00
2019-04-29T21:19:08.849Z,55.90
2019-04-29T21:24:18.645Z,55.70
2019-04-29T21:29:19.526Z,55.80
2019-04-29T21:34:25.333Z,56.00
2019-04-29T21:39:49.713Z,55.90
2019-04-29T21:44:54.250Z,56.10
2019-04-29T21:49:58.810Z,56.20
2019-04-29T21:55:00.250Z,56.50
2019-04-29T22:00:05.667Z,56.60
2019-04-29T22:05:16.930Z,56.80
2019-04-29T22:10:29.928Z,56.80
2019-04-29T22:15:41.008Z,56.80
2019-04-29T22:20:42.237Z,56.90
2019-04-29T22:25:45.639Z,56.90
2019-04-29T22:30:54.762Z,57.00
2019-04-29T22:35:56.863Z,57.10
2019-04-29T22:41:11.765Z,57.10
2019-04-29T22:46:17.661Z,57.10
2019-04-29T22:51:19.201Z,57.30
2019-04-29T22:56:21.826Z,57.30
2019-04-29T23:01:26.345Z,57.40
2019-04-29T23:06:30.883Z,57.40
2019-04-29T23:11:34.753Z,57.40
2019-04-29T23:16:45.451Z,57.40
2019-04-29T23:21:48.783Z,57.40
2019-04-29T23:27:07.481Z,57.50
2019-04-29T23:32:10.076Z,57.60
2019-04-29T23:37:15.410Z,57.60
2019-04-29T23:42:16.906Z,57.70
2019-04-29T23:47:18.268Z,57.60
2019-04-29T23:52:23.275Z,57.70
2019-04-29T23:58:03.688Z,58.00
